sensor_id;sensor_type;location;lat;lon;timestamp;P1;durP1;ratioP1;P2;durP2;ratioP2
75209;SDS011;63796;53.136;14.882;2024-03-17T00:00:38;5.30;;;0.50;;
75209;SDS011;63796;53.136;14.882;2024-03-17T00:03:29;3.50;;;0.50;;
75209;SDS011;63796;53.136;14.882;2024-03-17T00:06:00;4.40;;;0.50;;
75209;SDS011;63796;53.136;14.882;2024-03-17T00:08:27;11.10;;;0.70;;
75209;SDS011;63796;53.136;14.882;2024-03-17T00:10:54;9.60;;;0.90;;
75209;SDS011;63796;53.136;14.882;2024-03-17T00:13:21;5.50;;;0.70;;
75209;SDS011;63796;53.136;14.882;2024-03-17T00:15:48;11.80;;;1.40;;
75209;SDS011;63796;53.136;14.882;2024-03-17T00:18:16;4.70;;;0.60;;
75209;SDS011;63796;53.136;14.882;2024-03-17T00:20:43;5.80;;;0.80;;
75209;SDS011;63796;53.136;14.882;2024-03-17T00:23:09;6.50;;;0.70;;
75209;SDS011;63796;53.136;14.882;2024-03-17T00:25:38;11.30;;;0.70;;
75209;SDS011;63796;53.136;14.882;2024-03-17T00:28:06;3.60;;;0.80;;
75209;SDS011;63796;53.136;14.882;2024-03-17T00:30:32;7.50;;;0.60;;
75209;SDS011;63796;53.136;14.882;2024-03-17T00:33:02;4.70;;;0.30;;
75209;SDS011;63796;53.136;14.882;2024-03-17T00:35:30;10.80;;;0.60;;
75209;SDS011;63796;53.136;14.882;2024-03-17T00:37:57;5.50;;;0.70;;
75209;SDS011;63796;53.136;14.882;2024-03-17T00:40:24;8.00;;;1.00;;
75209;SDS011;63796;53.136;14.882;2024-03-17T00:42:51;7.90;;;0.70;;
75209;SDS011;63796;53.136;14.882;2024-03-17T00:45:20;7.20;;;0.80;;
75209;SDS011;63796;53.136;14.882;2024-03-17T00:47:47;11.00;;;1.40;;
75209;SDS011;63796;53.136;14.882;2024-03-17T00:50:13;1.40;;;0.50;;
75209;SDS011;63796;53.136;14.882;2024-03-17T00:52:40;8.00;;;0.70;;
75209;SDS011;63796;53.136;14.882;2024-03-17T00:55:07;4.80;;;0.70;;
75209;SDS011;63796;53.136;14.882;2024-03-17T00:57:36;9.60;;;1.00;;
75209;SDS011;63796;53.136;14.882;2024-03-17T01:00:04;6.40;;;1.70;;
75209;SDS011;63796;53.136;14.882;2024-03-17T01:02:32;7.80;;;0.50;;
75209;SDS011;63796;53.136;14.882;2024-03-17T01:04:59;11.40;;;0.90;;
75209;SDS011;63796;53.136;14.882;2024-03-17T01:07:25;9.30;;;1.30;;
75209;SDS011;63796;53.136;14.882;2024-03-17T01:09:52;11.80;;;2.30;;
75209;SDS011;63796;53.136;14.882;2024-03-17T01:12:18;9.00;;;1.40;;
75209;SDS011;63796;53.136;14.882;2024-03-17T01:14:45;8.30;;;0.80;;
75209;SDS011;63796;53.136;14.882;2024-03-17T01:17:12;11.50;;;1.10;;
75209;SDS011;63796;53.136;14.882;2024-03-17T01:19:39;9.10;;;0.90;;
75209;SDS011;63796;53.136;14.882;2024-03-17T01:22:05;10.90;;;1.40;;
75209;SDS011;63796;53.136;14.882;2024-03-17T01:24:32;10.80;;;1.00;;
75209;SDS011;63796;53.136;14.882;2024-03-17T01:27:00;9.80;;;1.00;;
75209;SDS011;63796;53.136;14.882;2024-03-17T01:29:28;8.90;;;1.30;;
75209;SDS011;63796;53.136;14.882;2024-03-17T01:31:54;12.70;;;1.20;;
75209;SDS011;63796;53.136;14.882;2024-03-17T01:34:22;10.30;;;1.00;;
75209;SDS011;63796;53.136;14.882;2024-03-17T01:36:48;8.70;;;1.30;;
75209;SDS011;63796;53.136;14.882;2024-03-17T01:39:15;11.40;;;1.30;;
75209;SDS011;63796;53.136;14.882;2024-03-17T01:41:44;12.30;;;1.40;;
75209;SDS011;63796;53.136;14.882;2024-03-17T01:44:25;7.40;;;1.40;;
75209;SDS011;63796;53.136;14.882;2024-03-17T01:46:52;7.70;;;1.00;;
75209;SDS011;63796;53.136;14.882;2024-03-17T01:49:20;10.10;;;0.90;;
75209;SDS011;63796;53.136;14.882;2024-03-17T01:51:48;16.60;;;1.10;;
75209;SDS011;63796;53.136;14.882;2024-03-17T01:54:15;7.10;;;1.30;;
75209;SDS011;63796;53.136;14.882;2024-03-17T01:56:43;10.70;;;1.60;;
75209;SDS011;63796;53.136;14.882;2024-03-17T01:59:10;26.50;;;1.40;;
75209;SDS011;63796;53.136;14.882;2024-03-17T02:01:37;5.20;;;0.70;;
75209;SDS011;63796;53.136;14.882;2024-03-17T02:04:05;5.30;;;0.70;;
75209;SDS011;63796;53.136;14.882;2024-03-17T02:06:32;8.40;;;1.60;;
75209;SDS011;63796;53.136;14.882;2024-03-17T02:08:59;7.50;;;1.10;;
75209;SDS011;63796;53.136;14.882;2024-03-17T02:11:28;9.40;;;1.20;;
75209;SDS011;63796;53.136;14.882;2024-03-17T02:13:55;9.90;;;2.10;;
75209;SDS011;63796;53.136;14.882;2024-03-17T02:16:23;7.30;;;1.00;;
75209;SDS011;63796;53.136;14.882;2024-03-17T02:18:56;7.00;;;0.90;;
75209;SDS011;63796;53.136;14.882;2024-03-17T02:21:24;7.00;;;0.80;;
75209;SDS011;63796;53.136;14.882;2024-03-17T02:23:54;10.40;;;0.80;;
75209;SDS011;63796;53.136;14.882;2024-03-17T02:26:21;8.10;;;0.70;;
75209;SDS011;63796;53.136;14.882;2024-03-17T02:28:48;10.60;;;1.80;;
75209;SDS011;63796;53.136;14.882;2024-03-17T02:31:17;6.20;;;0.80;;
75209;SDS011;63796;53.136;14.882;2024-03-17T02:33:45;7.10;;;0.90;;
75209;SDS011;63796;53.136;14.882;2024-03-17T02:36:12;7.20;;;0.50;;
75209;SDS011;63796;53.136;14.882;2024-03-17T02:38:39;4.60;;;0.50;;
75209;SDS011;63796;53.136;14.882;2024-03-17T02:41:25;5.40;;;0.80;;
75209;SDS011;63796;53.136;14.882;2024-03-17T02:43:52;10.00;;;0.80;;
75209;SDS011;63796;53.136;14.882;2024-03-17T02:46:19;4.70;;;1.40;;
75209;SDS011;63796;53.136;14.882;2024-03-17T02:48:51;10.70;;;1.50;;
75209;SDS011;63796;53.136;14.882;2024-03-17T02:51:20;8.20;;;0.40;;
75209;SDS011;63796;53.136;14.882;2024-03-17T02:53:48;6.60;;;0.60;;
75209;SDS011;63796;53.136;14.882;2024-03-17T02:56:16;3.80;;;0.40;;
75209;SDS011;63796;53.136;14.882;2024-03-17T02:58:45;7.10;;;0.70;;
75209;SDS011;63796;53.136;14.882;2024-03-17T03:01:14;8.90;;;0.60;;
75209;SDS011;63796;53.136;14.882;2024-03-17T03:03:41;7.60;;;1.00;;
75209;SDS011;63796;53.136;14.882;2024-03-17T03:06:08;6.60;;;0.50;;
75209;SDS011;63796;53.136;14.882;2024-03-17T03:08:36;9.00;;;0.40;;
75209;SDS011;63796;53.136;14.882;2024-03-17T03:11:09;7.80;;;0.80;;
75209;SDS011;63796;53.136;14.882;2024-03-17T03:13:40;9.30;;;0.30;;
75209;SDS011;63796;53.136;14.882;2024-03-17T03:16:09;5.90;;;0.70;;
75209;SDS011;63796;53.136;14.882;2024-03-17T03:18:36;6.70;;;0.80;;
75209;SDS011;63796;53.136;14.882;2024-03-17T03:21:03;7.10;;;1.10;;
75209;SDS011;63796;53.136;14.882;2024-03-17T03:23:31;3.10;;;0.20;;
75209;SDS011;63796;53.136;14.882;2024-03-17T03:25:59;9.20;;;1.00;;
75209;SDS011;63796;53.136;14.882;2024-03-17T03:28:26;8.10;;;0.70;;
75209;SDS011;63796;53.136;14.882;2024-03-17T03:30:53;8.60;;;2.30;;
75209;SDS011;63796;53.136;14.882;2024-03-17T03:33:20;6.50;;;0.60;;
75209;SDS011;63796;53.136;14.882;2024-03-17T03:35:47;4.80;;;0.30;;
75209;SDS011;63796;53.136;14.882;2024-03-17T03:38:14;6.90;;;1.40;;
75209;SDS011;63796;53.136;14.882;2024-03-17T03:40:41;4.50;;;0.90;;
75209;SDS011;63796;53.136;14.882;2024-03-17T03:43:09;10.50;;;1.00;;
75209;SDS011;63796;53.136;14.882;2024-03-17T03:45:36;7.30;;;0.70;;
75209;SDS011;63796;53.136;14.882;2024-03-17T03:48:04;6.60;;;1.00;;
75209;SDS011;63796;53.136;14.882;2024-03-17T03:50:31;8.50;;;0.40;;
75209;SDS011;63796;53.136;14.882;2024-03-17T03:52:58;7.70;;;1.00;;
75209;SDS011;63796;53.136;14.882;2024-03-17T03:55:24;5.10;;;0.50;;
75209;SDS011;63796;53.136;14.882;2024-03-17T03:57:51;9.40;;;0.30;;
75209;SDS011;63796;53.136;14.882;2024-03-17T04:00:21;7.90;;;0.70;;
75209;SDS011;63796;53.136;14.882;2024-03-17T04:02:52;10.80;;;1.70;;
75209;SDS011;63796;53.136;14.882;2024-03-17T04:05:19;6.40;;;0.50;;
75209;SDS011;63796;53.136;14.882;2024-03-17T04:07:47;9.20;;;0.70;;
75209;SDS011;63796;53.136;14.882;2024-03-17T04:10:15;8.70;;;0.90;;
75209;SDS011;63796;53.136;14.882;2024-03-17T04:12:42;8.10;;;0.40;;
75209;SDS011;63796;53.136;14.882;2024-03-17T04:15:09;3.90;;;0.20;;
75209;SDS011;63796;53.136;14.882;2024-03-17T04:17:38;4.90;;;0.50;;
75209;SDS011;63796;53.136;14.882;2024-03-17T04:20:06;10.90;;;0.50;;
75209;SDS011;63796;53.136;14.882;2024-03-17T04:22:37;3.30;;;0.60;;
75209;SDS011;63796;53.136;14.882;2024-03-17T04:25:04;12.00;;;1.20;;
75209;SDS011;63796;53.136;14.882;2024-03-17T04:27:31;6.60;;;0.50;;
75209;SDS011;63796;53.136;14.882;2024-03-17T04:29:59;5.10;;;0.80;;
75209;SDS011;63796;53.136;14.882;2024-03-17T04:32:26;8.30;;;0.70;;
75209;SDS011;63796;53.136;14.882;2024-03-17T04:34:57;6.70;;;1.10;;
75209;SDS011;63796;53.136;14.882;2024-03-17T04:37:25;3.80;;;0.30;;
75209;SDS011;63796;53.136;14.882;2024-03-17T04:39:51;5.50;;;0.70;;
75209;SDS011;63796;53.136;14.882;2024-03-17T04:42:18;2.20;;;0.40;;
75209;SDS011;63796;53.136;14.882;2024-03-17T04:44:45;2.50;;;0.10;;
75209;SDS011;63796;53.136;14.882;2024-03-17T04:47:12;8.80;;;1.00;;
75209;SDS011;63796;53.136;14.882;2024-03-17T04:49:41;3.40;;;0.10;;
75209;SDS011;63796;53.136;14.882;2024-03-17T04:52:10;3.70;;;0.30;;
75209;SDS011;63796;53.136;14.882;2024-03-17T04:54:36;5.90;;;0.60;;
75209;SDS011;63796;53.136;14.882;2024-03-17T04:57:03;6.40;;;0.70;;
75209;SDS011;63796;53.136;14.882;2024-03-17T04:59:34;5.70;;;0.60;;
75209;SDS011;63796;53.136;14.882;2024-03-17T05:02:01;6.30;;;0.70;;
75209;SDS011;63796;53.136;14.882;2024-03-17T05:04:29;0.90;;;0.30;;
75209;SDS011;63796;53.136;14.882;2024-03-17T05:06:56;2.50;;;0.10;;
75209;SDS011;63796;53.136;14.882;2024-03-17T05:09:24;5.00;;;0.60;;
75209;SDS011;63796;53.136;14.882;2024-03-17T05:11:51;1.10;;;0.00;;
75209;SDS011;63796;53.136;14.882;2024-03-17T05:14:20;3.80;;;0.30;;
75209;SDS011;63796;53.136;14.882;2024-03-17T05:16:50;2.20;;;0.20;;
75209;SDS011;63796;53.136;14.882;2024-03-17T05:19:17;11.00;;;0.70;;
75209;SDS011;63796;53.136;14.882;2024-03-17T05:21:45;1.10;;;0.30;;
75209;SDS011;63796;53.136;14.882;2024-03-17T05:24:12;1.90;;;0.50;;
75209;SDS011;63796;53.136;14.882;2024-03-17T05:26:39;1.50;;;0.60;;
75209;SDS011;63796;53.136;14.882;2024-03-17T05:29:06;1.90;;;0.20;;
75209;SDS011;63796;53.136;14.882;2024-03-17T05:31:32;4.40;;;0.10;;
75209;SDS011;63796;53.136;14.882;2024-03-17T05:33:59;2.00;;;0.10;;
75209;SDS011;63796;53.136;14.882;2024-03-17T05:36:26;3.30;;;0.40;;
75209;SDS011;63796;53.136;14.882;2024-03-17T05:38:53;1.70;;;0.10;;
75209;SDS011;63796;53.136;14.882;2024-03-17T05:41:19;4.00;;;0.30;;
75209;SDS011;63796;53.136;14.882;2024-03-17T05:43:46;4.10;;;0.10;;
75209;SDS011;63796;53.136;14.882;2024-03-17T05:46:15;0.50;;;0.10;;
75209;SDS011;63796;53.136;14.882;2024-03-17T05:48:42;3.90;;;0.00;;
75209;SDS011;63796;53.136;14.882;2024-03-17T05:51:10;2.20;;;0.20;;
75209;SDS011;63796;53.136;14.882;2024-03-17T05:53:41;3.30;;;0.10;;
75209;SDS011;63796;53.136;14.882;2024-03-17T05:56:10;2.20;;;0.10;;
75209;SDS011;63796;53.136;14.882;2024-03-17T05:58:42;8.60;;;0.40;;
75209;SDS011;63796;53.136;14.882;2024-03-17T06:01:09;1.90;;;0.10;;
75209;SDS011;63796;53.136;14.882;2024-03-17T06:03:38;1.80;;;0.10;;
75209;SDS011;63796;53.136;14.882;2024-03-17T06:06:05;6.90;;;0.20;;
75209;SDS011;63796;53.136;14.882;2024-03-17T06:08:38;5.10;;;0.20;;
75209;SDS011;63796;53.136;14.882;2024-03-17T06:11:05;3.80;;;0.20;;
75209;SDS011;63796;53.136;14.882;2024-03-17T06:13:32;3.10;;;0.20;;
75209;SDS011;63796;53.136;14.882;2024-03-17T06:16:02;1.50;;;0.20;;
75209;SDS011;63796;53.136;14.882;2024-03-17T06:18:29;2.40;;;0.20;;
75209;SDS011;63796;53.136;14.882;2024-03-17T06:20:56;1.30;;;0.60;;
75209;SDS011;63796;53.136;14.882;2024-03-17T06:23:26;1.50;;;0.40;;
75209;SDS011;63796;53.136;14.882;2024-03-17T06:25:53;4.50;;;0.50;;
75209;SDS011;63796;53.136;14.882;2024-03-17T06:28:23;2.00;;;0.20;;
75209;SDS011;63796;53.136;14.882;2024-03-17T06:30:58;5.70;;;0.50;;
75209;SDS011;63796;53.136;14.882;2024-03-17T06:33:26;1.30;;;0.10;;
75209;SDS011;63796;53.136;14.882;2024-03-17T06:35:54;3.00;;;0.20;;
75209;SDS011;63796;53.136;14.882;2024-03-17T06:38:21;4.80;;;0.30;;
75209;SDS011;63796;53.136;14.882;2024-03-17T06:40:51;3.10;;;0.10;;
75209;SDS011;63796;53.136;14.882;2024-03-17T06:43:19;3.00;;;0.10;;
75209;SDS011;63796;53.136;14.882;2024-03-17T06:45:56;2.20;;;0.70;;
75209;SDS011;63796;53.136;14.882;2024-03-17T06:48:24;1.40;;;0.20;;
75209;SDS011;63796;53.136;14.882;2024-03-17T06:50:51;1.50;;;0.20;;
75209;SDS011;63796;53.136;14.882;2024-03-17T06:53:18;3.20;;;0.30;;
75209;SDS011;63796;53.136;14.882;2024-03-17T06:55:55;2.00;;;0.30;;
75209;SDS011;63796;53.136;14.882;2024-03-17T06:58:23;4.80;;;0.20;;
75209;SDS011;63796;53.136;14.882;2024-03-17T07:00:57;2.50;;;0.20;;
75209;SDS011;63796;53.136;14.882;2024-03-17T07:03:26;1.60;;;0.30;;
75209;SDS011;63796;53.136;14.882;2024-03-17T07:05:59;2.10;;;0.10;;
75209;SDS011;63796;53.136;14.882;2024-03-17T07:08:29;3.00;;;0.40;;
75209;SDS011;63796;53.136;14.882;2024-03-17T07:11:04;3.10;;;0.30;;
75209;SDS011;63796;53.136;14.882;2024-03-17T07:13:35;4.40;;;0.10;;
75209;SDS011;63796;53.136;14.882;2024-03-17T07:16:09;2.30;;;0.20;;
75209;SDS011;63796;53.136;14.882;2024-03-17T07:18:36;1.60;;;0.60;;
75209;SDS011;63796;53.136;14.882;2024-03-17T07:21:04;3.20;;;0.20;;
75209;SDS011;63796;53.136;14.882;2024-03-17T07:23:31;4.60;;;0.50;;
75209;SDS011;63796;53.136;14.882;2024-03-17T07:25:59;4.00;;;0.60;;
75209;SDS011;63796;53.136;14.882;2024-03-17T07:28:26;1.40;;;0.40;;
75209;SDS011;63796;53.136;14.882;2024-03-17T07:30:55;2.00;;;0.10;;
75209;SDS011;63796;53.136;14.882;2024-03-17T07:33:23;0.40;;;0.10;;
75209;SDS011;63796;53.136;14.882;2024-03-17T07:35:51;6.40;;;1.00;;
75209;SDS011;63796;53.136;14.882;2024-03-17T07:38:18;2.40;;;0.20;;
75209;SDS011;63796;53.136;14.882;2024-03-17T07:40:56;0.80;;;0.10;;
75209;SDS011;63796;53.136;14.882;2024-03-17T07:43:28;1.10;;;0.00;;
75209;SDS011;63796;53.136;14.882;2024-03-17T07:46:05;1.40;;;0.40;;
75209;SDS011;63796;53.136;14.882;2024-03-17T07:48:35;0.80;;;0.30;;
75209;SDS011;63796;53.136;14.882;2024-03-17T07:51:05;3.70;;;0.40;;
75209;SDS011;63796;53.136;14.882;2024-03-17T07:53:36;2.40;;;0.30;;
75209;SDS011;63796;53.136;14.882;2024-03-17T07:58:32;1.50;;;0.10;;
75209;SDS011;63796;53.136;14.882;2024-03-17T08:01:06;1.20;;;0.30;;
75209;SDS011;63796;53.136;14.882;2024-03-17T08:03:34;1.30;;;0.20;;
75209;SDS011;63796;53.136;14.882;2024-03-17T08:06:02;2.10;;;0.20;;
75209;SDS011;63796;53.136;14.882;2024-03-17T08:08:29;2.10;;;0.20;;
75209;SDS011;63796;53.136;14.882;2024-03-17T08:10:57;1.00;;;0.10;;
75209;SDS011;63796;53.136;14.882;2024-03-17T08:13:23;1.80;;;0.10;;
75209;SDS011;63796;53.136;14.882;2024-03-17T08:16:07;0.80;;;0.20;;
75209;SDS011;63796;53.136;14.882;2024-03-17T08:18:35;3.50;;;0.30;;
75209;SDS011;63796;53.136;14.882;2024-03-17T08:21:02;1.10;;;0.30;;
75209;SDS011;63796;53.136;14.882;2024-03-17T08:23:33;3.10;;;0.20;;
75209;SDS011;63796;53.136;14.882;2024-03-17T08:26:02;1.40;;;0.30;;
75209;SDS011;63796;53.136;14.882;2024-03-17T08:28:29;3.80;;;0.40;;
75209;SDS011;63796;53.136;14.882;2024-03-17T08:30:57;1.60;;;0.10;;
75209;SDS011;63796;53.136;14.882;2024-03-17T08:33:25;1.30;;;0.10;;
75209;SDS011;63796;53.136;14.882;2024-03-17T08:35:56;2.40;;;0.20;;
75209;SDS011;63796;53.136;14.882;2024-03-17T08:38:24;4.90;;;2.60;;
75209;SDS011;63796;53.136;14.882;2024-03-17T08:40:51;2.50;;;0.30;;
75209;SDS011;63796;53.136;14.882;2024-03-17T08:43:19;1.00;;;0.20;;
75209;SDS011;63796;53.136;14.882;2024-03-17T08:45:54;2.20;;;0.20;;
75209;SDS011;63796;53.136;14.882;2024-03-17T08:48:22;1.00;;;0.20;;
75209;SDS011;63796;53.136;14.882;2024-03-17T08:50:53;1.00;;;0.10;;
75209;SDS011;63796;53.136;14.882;2024-03-17T08:53:20;0.50;;;0.10;;
75209;SDS011;63796;53.136;14.882;2024-03-17T08:55:47;1.00;;;0.10;;
75209;SDS011;63796;53.136;14.882;2024-03-17T08:58:14;3.30;;;0.20;;
75209;SDS011;63796;53.136;14.882;2024-03-17T09:00:41;1.50;;;0.10;;
75209;SDS011;63796;53.136;14.882;2024-03-17T09:03:08;3.20;;;0.10;;
75209;SDS011;63796;53.136;14.882;2024-03-17T09:05:37;1.00;;;0.10;;
75209;SDS011;63796;53.136;14.882;2024-03-17T09:08:04;0.90;;;0.10;;
75209;SDS011;63796;53.136;14.882;2024-03-17T09:10:31;1.20;;;0.10;;
75209;SDS011;63796;53.136;14.882;2024-03-17T09:12:58;0.70;;;0.10;;
75209;SDS011;63796;53.136;14.882;2024-03-17T09:15:25;2.60;;;0.20;;
75209;SDS011;63796;53.136;14.882;2024-03-17T09:17:52;1.40;;;0.20;;
75209;SDS011;63796;53.136;14.882;2024-03-17T09:20:19;0.60;;;0.10;;
75209;SDS011;63796;53.136;14.882;2024-03-17T09:22:46;0.80;;;0.10;;
75209;SDS011;63796;53.136;14.882;2024-03-17T09:25:13;2.70;;;0.40;;
75209;SDS011;63796;53.136;14.882;2024-03-17T09:27:41;4.50;;;1.10;;
75209;SDS011;63796;53.136;14.882;2024-03-17T09:30:08;6.40;;;2.70;;
75209;SDS011;63796;53.136;14.882;2024-03-17T09:32:38;0.80;;;0.10;;
75209;SDS011;63796;53.136;14.882;2024-03-17T09:35:05;0.80;;;0.10;;
75209;SDS011;63796;53.136;14.882;2024-03-17T09:37:32;1.80;;;0.40;;
75209;SDS011;63796;53.136;14.882;2024-03-17T09:40:03;2.20;;;0.50;;
75209;SDS011;63796;53.136;14.882;2024-03-17T09:42:32;1.20;;;0.20;;
75209;SDS011;63796;53.136;14.882;2024-03-17T09:44:59;2.40;;;1.00;;
75209;SDS011;63796;53.136;14.882;2024-03-17T09:47:26;3.40;;;0.70;;
75209;SDS011;63796;53.136;14.882;2024-03-17T09:49:52;2.00;;;0.60;;
75209;SDS011;63796;53.136;14.882;2024-03-17T09:52:25;2.30;;;0.70;;
75209;SDS011;63796;53.136;14.882;2024-03-17T09:55:08;16.40;;;9.00;;
75209;SDS011;63796;53.136;14.882;2024-03-17T09:57:39;49.70;;;26.40;;
75209;SDS011;63796;53.136;14.882;2024-03-17T10:00:10;10.70;;;6.80;;
75209;SDS011;63796;53.136;14.882;2024-03-17T10:02:47;13.90;;;8.10;;
75209;SDS011;63796;53.136;14.882;2024-03-17T10:05:22;10.60;;;6.00;;
75209;SDS011;63796;53.136;14.882;2024-03-17T10:07:52;40.20;;;22.70;;
75209;SDS011;63796;53.136;14.882;2024-03-17T10:10:20;14.40;;;7.50;;
75209;SDS011;63796;53.136;14.882;2024-03-17T10:13:19;19.40;;;10.60;;
75209;SDS011;63796;53.136;14.882;2024-03-17T10:15:49;15.60;;;7.70;;
75209;SDS011;63796;53.136;14.882;2024-03-17T10:18:22;15.20;;;7.40;;
75209;SDS011;63796;53.136;14.882;2024-03-17T10:20:50;18.10;;;7.50;;
75209;SDS011;63796;53.136;14.882;2024-03-17T10:23:28;20.20;;;8.20;;
75209;SDS011;63796;53.136;14.882;2024-03-17T10:25:56;24.60;;;10.70;;
75209;SDS011;63796;53.136;14.882;2024-03-17T10:28:23;23.40;;;9.30;;
75209;SDS011;63796;53.136;14.882;2024-03-17T10:30:58;25.10;;;9.90;;
75209;SDS011;63796;53.136;14.882;2024-03-17T10:33:26;19.20;;;8.80;;
75209;SDS011;63796;53.136;14.882;2024-03-17T10:36:01;17.40;;;7.30;;
75209;SDS011;63796;53.136;14.882;2024-03-17T10:38:29;17.80;;;8.40;;
75209;SDS011;63796;53.136;14.882;2024-03-17T10:40:56;17.60;;;7.30;;
75209;SDS011;63796;53.136;14.882;2024-03-17T10:43:24;15.80;;;6.90;;
75209;SDS011;63796;53.136;14.882;2024-03-17T10:45:56;14.40;;;6.30;;
75209;SDS011;63796;53.136;14.882;2024-03-17T10:48:26;14.50;;;5.80;;
75209;SDS011;63796;53.136;14.882;2024-03-17T10:50:58;13.20;;;6.10;;
75209;SDS011;63796;53.136;14.882;2024-03-17T10:53:26;11.60;;;5.50;;
75209;SDS011;63796;53.136;14.882;2024-03-17T10:56:03;12.50;;;5.00;;
75209;SDS011;63796;53.136;14.882;2024-03-17T10:58:38;8.70;;;4.20;;
75209;SDS011;63796;53.136;14.882;2024-03-17T11:01:10;5.10;;;2.50;;
75209;SDS011;63796;53.136;14.882;2024-03-17T11:03:38;5.60;;;2.00;;
75209;SDS011;63796;53.136;14.882;2024-03-17T11:06:07;4.10;;;2.30;;
75209;SDS011;63796;53.136;14.882;2024-03-17T11:08:35;8.00;;;3.60;;
75209;SDS011;63796;53.136;14.882;2024-03-17T11:11:03;10.30;;;4.30;;
75209;SDS011;63796;53.136;14.882;2024-03-17T11:13:31;7.90;;;3.00;;
75209;SDS011;63796;53.136;14.882;2024-03-17T11:15:59;6.70;;;2.60;;
75209;SDS011;63796;53.136;14.882;2024-03-17T11:18:29;8.40;;;3.30;;
75209;SDS011;63796;53.136;14.882;2024-03-17T11:21:02;9.50;;;3.50;;
75209;SDS011;63796;53.136;14.882;2024-03-17T11:23:36;9.30;;;4.10;;
75209;SDS011;63796;53.136;14.882;2024-03-17T11:26:06;7.90;;;3.50;;
75209;SDS011;63796;53.136;14.882;2024-03-17T11:31:38;9.70;;;4.00;;
75209;SDS011;63796;53.136;14.882;2024-03-17T11:34:27;10.80;;;4.40;;
75209;SDS011;63796;53.136;14.882;2024-03-17T11:37:00;19.60;;;7.50;;
75209;SDS011;63796;53.136;14.882;2024-03-17T11:42:16;21.20;;;8.00;;
75209;SDS011;63796;53.136;14.882;2024-03-17T11:44:55;17.90;;;8.20;;
75209;SDS011;63796;53.136;14.882;2024-03-17T11:47:22;19.60;;;8.30;;
75209;SDS011;63796;53.136;14.882;2024-03-17T11:49:51;22.10;;;8.80;;
75209;SDS011;63796;53.136;14.882;2024-03-17T11:52:19;23.10;;;10.00;;
75209;SDS011;63796;53.136;14.882;2024-03-17T11:54:46;22.50;;;11.70;;
75209;SDS011;63796;53.136;14.882;2024-03-17T11:57:21;31.00;;;14.20;;
75209;SDS011;63796;53.136;14.882;2024-03-17T11:59:51;23.70;;;10.70;;
75209;SDS011;63796;53.136;14.882;2024-03-17T12:02:27;22.60;;;9.70;;
75209;SDS011;63796;53.136;14.882;2024-03-17T12:05:01;20.70;;;8.70;;
75209;SDS011;63796;53.136;14.882;2024-03-17T12:07:28;17.90;;;6.40;;
75209;SDS011;63796;53.136;14.882;2024-03-17T12:09:57;11.70;;;5.40;;
75209;SDS011;63796;53.136;14.882;2024-03-17T12:12:28;10.70;;;4.60;;
75209;SDS011;63796;53.136;14.882;2024-03-17T12:15:03;12.00;;;4.60;;
75209;SDS011;63796;53.136;14.882;2024-03-17T12:17:32;10.60;;;4.30;;
75209;SDS011;63796;53.136;14.882;2024-03-17T12:19:59;11.70;;;5.10;;
75209;SDS011;63796;53.136;14.882;2024-03-17T12:22:27;10.30;;;4.00;;
75209;SDS011;63796;53.136;14.882;2024-03-17T12:24:59;7.20;;;3.00;;
75209;SDS011;63796;53.136;14.882;2024-03-17T12:27:28;3.50;;;1.40;;
75209;SDS011;63796;53.136;14.882;2024-03-17T12:29:56;2.80;;;0.80;;
75209;SDS011;63796;53.136;14.882;2024-03-17T12:32:25;2.30;;;0.80;;
75209;SDS011;63796;53.136;14.882;2024-03-17T12:34:57;0.80;;;0.20;;
75209;SDS011;63796;53.136;14.882;2024-03-17T12:37:25;0.60;;;0.10;;
75209;SDS011;63796;53.136;14.882;2024-03-17T12:39:58;1.50;;;0.50;;
75209;SDS011;63796;53.136;14.882;2024-03-17T12:42:27;1.70;;;0.40;;
75209;SDS011;63796;53.136;14.882;2024-03-17T12:44:59;1.40;;;0.40;;
75209;SDS011;63796;53.136;14.882;2024-03-17T12:47:31;0.40;;;0.20;;
75209;SDS011;63796;53.136;14.882;2024-03-17T12:49:59;2.80;;;0.40;;
75209;SDS011;63796;53.136;14.882;2024-03-17T12:52:31;0.50;;;0.20;;
75209;SDS011;63796;53.136;14.882;2024-03-17T12:54:59;0.30;;;0.10;;
75209;SDS011;63796;53.136;14.882;2024-03-17T13:01:08;2.30;;;0.30;;
75209;SDS011;63796;53.136;14.882;2024-03-17T13:03:36;1.50;;;0.10;;
75209;SDS011;63796;53.136;14.882;2024-03-17T13:06:04;0.30;;;0.10;;
75209;SDS011;63796;53.136;14.882;2024-03-17T13:08:35;1.20;;;0.10;;
75209;SDS011;63796;53.136;14.882;2024-03-17T13:11:02;0.70;;;0.30;;
75209;SDS011;63796;53.136;14.882;2024-03-17T13:13:31;0.70;;;0.10;;
75209;SDS011;63796;53.136;14.882;2024-03-17T13:15:59;1.20;;;0.30;;
75209;SDS011;63796;53.136;14.882;2024-03-17T13:18:26;1.90;;;0.50;;
75209;SDS011;63796;53.136;14.882;2024-03-17T13:20:54;1.90;;;0.60;;
75209;SDS011;63796;53.136;14.882;2024-03-17T13:23:24;4.00;;;0.60;;
75209;SDS011;63796;53.136;14.882;2024-03-17T13:25:51;5.00;;;2.10;;
75209;SDS011;63796;53.136;14.882;2024-03-17T13:28:20;4.30;;;1.70;;
75209;SDS011;63796;53.136;14.882;2024-03-17T13:30:48;6.60;;;2.10;;
75209;SDS011;63796;53.136;14.882;2024-03-17T13:33:15;16.20;;;10.40;;
75209;SDS011;63796;53.136;14.882;2024-03-17T13:35:42;15.70;;;10.50;;
75209;SDS011;63796;53.136;14.882;2024-03-17T13:38:10;7.60;;;5.00;;
75209;SDS011;63796;53.136;14.882;2024-03-17T13:40:38;3.90;;;2.50;;
75209;SDS011;63796;53.136;14.882;2024-03-17T13:43:06;4.50;;;2.50;;
75209;SDS011;63796;53.136;14.882;2024-03-17T13:45:41;3.40;;;1.70;;
75209;SDS011;63796;53.136;14.882;2024-03-17T13:48:09;4.70;;;1.90;;
75209;SDS011;63796;53.136;14.882;2024-03-17T13:50:40;5.80;;;2.20;;
75209;SDS011;63796;53.136;14.882;2024-03-17T13:53:11;4.80;;;2.50;;
75209;SDS011;63796;53.136;14.882;2024-03-17T13:55:38;8.20;;;2.50;;
75209;SDS011;63796;53.136;14.882;2024-03-17T13:58:06;5.80;;;2.20;;
75209;SDS011;63796;53.136;14.882;2024-03-17T14:00:33;5.80;;;2.30;;
75209;SDS011;63796;53.136;14.882;2024-03-17T14:03:06;3.00;;;1.60;;
75209;SDS011;63796;53.136;14.882;2024-03-17T14:05:34;1.90;;;0.60;;
75209;SDS011;63796;53.136;14.882;2024-03-17T14:08:03;0.80;;;0.30;;
75209;SDS011;63796;53.136;14.882;2024-03-17T14:10:31;1.00;;;0.30;;
75209;SDS011;63796;53.136;14.882;2024-03-17T14:13:03;3.40;;;1.40;;
75209;SDS011;63796;53.136;14.882;2024-03-17T14:15:31;2.20;;;1.20;;
75209;SDS011;63796;53.136;14.882;2024-03-17T14:17:58;1.50;;;0.70;;
75209;SDS011;63796;53.136;14.882;2024-03-17T14:20:28;7.20;;;2.80;;
75209;SDS011;63796;53.136;14.882;2024-03-17T14:22:56;4.60;;;2.30;;
75209;SDS011;63796;53.136;14.882;2024-03-17T14:25:24;6.70;;;5.80;;
75209;SDS011;63796;53.136;14.882;2024-03-17T14:27:52;6.10;;;2.90;;
75209;SDS011;63796;53.136;14.882;2024-03-17T14:30:20;4.20;;;1.80;;
75209;SDS011;63796;53.136;14.882;2024-03-17T14:32:47;4.40;;;1.50;;
75209;SDS011;63796;53.136;14.882;2024-03-17T14:35:18;8.70;;;5.20;;
75209;SDS011;63796;53.136;14.882;2024-03-17T14:37:48;1.90;;;1.20;;
75209;SDS011;63796;53.136;14.882;2024-03-17T14:40:16;5.60;;;1.30;;
75209;SDS011;63796;53.136;14.882;2024-03-17T14:42:55;1.60;;;1.20;;
75209;SDS011;63796;53.136;14.882;2024-03-17T14:45:22;1.40;;;0.70;;
75209;SDS011;63796;53.136;14.882;2024-03-17T14:47:52;1.70;;;0.40;;
75209;SDS011;63796;53.136;14.882;2024-03-17T14:50:20;3.20;;;1.50;;
75209;SDS011;63796;53.136;14.882;2024-03-17T14:52:47;8.70;;;3.90;;